createdAt,value
2018-11-02T00:02:25.414Z,8.33
2018-11-02T00:05:00.094Z,10.07
2018-11-02T00:07:34.795Z,8.80
2018-11-02T00:10:09.265Z,9.73
2018-11-02T00:12:43.969Z,9.03
2018-11-02T00:15:18.861Z,9.43
2018-11-02T00:17:53.333Z,8.70
2018-11-02T00:20:27.680Z,7.10
2018-11-02T00:23:02.299Z,7.70
2018-11-02T00:25:36.953Z,8.87
2018-11-02T00:28:11.408Z,11.03
2018-11-02T00:30:46.068Z,12.93
2018-11-02T00:33:20.606Z,9.50
2018-11-02T00:35:55.511Z,7.83
2018-11-02T00:38:29.714Z,9.33
2018-11-02T00:41:04.390Z,8.60
2018-11-02T00:43:38.948Z,7.07
2018-11-02T00:46:13.693Z,8.57
2018-11-02T00:48:48.016Z,7.90
2018-11-02T00:51:22.655Z,12.03
2018-11-02T00:53:57.234Z,7.97
2018-11-02T00:56:31.819Z,11.00
2018-11-02T00:59:06.357Z,9.13
2018-11-02T01:01:41.238Z,10.40
2018-11-02T01:04:15.687Z,9.33
2018-11-02T01:06:50.289Z,12.17
2018-11-02T01:09:25.127Z,10.07
2018-11-02T01:11:59.620Z,9.97
2018-11-02T01:14:34.128Z,8.50
2018-11-02T01:17:08.855Z,8.27
2018-11-02T01:19:43.734Z,9.90
2018-11-02T01:22:18.533Z,9.13
2018-11-02T01:24:53.196Z,11.70
2018-11-02T01:27:28.029Z,8.47
2018-11-02T01:30:02.921Z,8.63
2018-11-02T01:32:37.160Z,10.00
2018-11-02T01:35:11.843Z,11.17
2018-11-02T01:37:46.570Z,8.37
2018-11-02T01:40:21.058Z,7.63
2018-11-02T01:42:55.843Z,7.07
2018-11-02T01:45:30.561Z,8.10
2018-11-02T01:48:05.538Z,8.73
2018-11-02T01:50:39.713Z,9.27
2018-11-02T01:53:14.494Z,8.93
2018-11-02T01:55:50.116Z,8.80
2018-11-02T01:58:24.795Z,7.07
2018-11-02T02:00:59.458Z,10.97
2018-11-02T02:03:34.081Z,9.50
2018-11-02T02:06:08.883Z,8.30
2018-11-02T02:08:44.091Z,7.30
2018-11-02T02:11:19.050Z,8.50
2018-11-02T02:13:53.755Z,12.40
2018-11-02T02:16:28.352Z,9.13
2018-11-02T02:19:03.011Z,8.50
2018-11-02T02:21:37.650Z,6.73
2018-11-02T02:24:12.209Z,8.47
2018-11-02T02:26:47.174Z,7.97
2018-11-02T02:29:21.655Z,13.93
2018-11-02T02:31:56.225Z,9.23
2018-11-02T02:34:30.831Z,10.30
2018-11-02T02:37:05.654Z,9.20
2018-11-02T02:39:40.011Z,9.57
2018-11-02T02:42:14.574Z,8.77
2018-11-02T02:44:49.094Z,8.00
2018-11-02T02:47:23.799Z,10.40
2018-11-02T02:49:58.216Z,10.97
2018-11-02T02:52:32.694Z,10.50
2018-11-02T02:55:07.781Z,8.93
2018-11-02T02:57:42.881Z,9.33
2018-11-02T03:00:17.426Z,8.63
2018-11-02T03:02:52.021Z,8.57
2018-11-02T03:05:26.400Z,7.90
2018-11-02T03:08:00.925Z,7.83
2018-11-02T03:10:35.732Z,12.73
2018-11-02T03:13:10.583Z,10.40
2018-11-02T03:15:44.803Z,8.17
2018-11-02T03:18:19.403Z,9.07
2018-11-02T03:20:54.035Z,9.10
2018-11-02T03:23:28.831Z,9.33
2018-11-02T03:26:02.993Z,9.17
2018-11-02T03:28:37.526Z,9.57
2018-11-02T03:31:12.079Z,9.73
2018-11-02T03:33:46.477Z,9.93
2018-11-02T03:36:21.001Z,8.30
2018-11-02T03:38:55.548Z,8.73
2018-11-02T03:41:30.237Z,8.43
2018-11-02T03:44:05.233Z,15.43
2018-11-02T03:46:40.344Z,9.30
2018-11-02T03:49:14.409Z,15.77
2018-11-02T03:51:49.102Z,8.87
2018-11-02T03:54:23.743Z,12.20
2018-11-02T03:56:58.316Z,8.53
2018-11-02T03:59:33.135Z,8.77
2018-11-02T04:02:08.123Z,8.90
2018-11-02T04:04:42.506Z,7.47
2018-11-02T04:07:17.228Z,9.47
2018-11-02T04:09:51.786Z,8.07
2018-11-02T04:12:26.518Z,10.03
2018-11-02T04:15:00.782Z,8.40
2018-11-02T04:17:35.366Z,9.13
2018-11-02T04:20:10.252Z,11.30
2018-11-02T04:22:44.941Z,12.13
2018-11-02T04:25:20.425Z,8.50
2018-11-02T04:27:54.716Z,9.50
2018-11-02T04:30:29.358Z,12.47
2018-11-02T04:33:04.583Z,9.53
2018-11-02T04:35:40.071Z,8.57
2018-11-02T04:38:15.127Z,10.03
2018-11-02T04:40:50.061Z,9.20
2018-11-02T04:43:24.598Z,10.20
2018-11-02T04:45:59.220Z,8.03
2018-11-02T04:48:33.811Z,10.73
2018-11-02T04:51:08.571Z,16.13
2018-11-02T04:53:43.130Z,10.77
2018-11-02T04:56:18.002Z,8.50
2018-11-02T04:58:52.846Z,8.77
2018-11-02T05:01:27.335Z,8.53
2018-11-02T05:04:02.038Z,9.57
2018-11-02T05:06:36.814Z,9.90
2018-11-02T05:09:11.490Z,9.80
2018-11-02T05:11:46.086Z,8.80
2018-11-02T05:14:20.439Z,10.87
2018-11-02T05:16:55.244Z,9.50
2018-11-02T05:19:29.737Z,8.60
2018-11-02T05:22:04.495Z,9.13
2018-11-02T05:24:38.738Z,8.50
2018-11-02T05:27:13.347Z,10.47
2018-11-02T05:29:47.949Z,11.20
2018-11-02T05:32:22.519Z,9.40
2018-11-02T05:34:57.277Z,8.80
2018-11-02T05:37:31.848Z,8.73
2018-11-02T05:40:07.411Z,8.60
2018-11-02T05:42:41.973Z,11.90
2018-11-02T05:45:16.827Z,8.70
2018-11-02T05:47:52.089Z,9.60
2018-11-02T05:50:26.908Z,14.43
2018-11-02T05:53:01.468Z,6.73
2018-11-02T05:55:36.101Z,8.30
2018-11-02T05:58:10.625Z,8.17
2018-11-02T06:00:45.159Z,7.50
2018-11-02T06:03:19.619Z,11.27
2018-11-02T06:05:54.256Z,13.30
2018-11-02T06:08:28.889Z,7.80
2018-11-02T06:11:03.634Z,9.97
2018-11-02T06:13:38.236Z,9.50
2018-11-02T06:16:13.022Z,11.27
2018-11-02T06:18:47.870Z,7.90
2018-11-02T06:21:22.750Z,7.00
2018-11-02T06:23:57.820Z,8.00
2018-11-02T06:26:32.424Z,7.23
2018-11-02T06:29:06.849Z,10.40
2018-11-02T06:31:41.482Z,7.83
2018-11-02T06:34:16.081Z,8.03
2018-11-02T06:36:50.670Z,8.70
2018-11-02T06:39:26.009Z,7.00
2018-11-02T06:42:00.934Z,11.60
2018-11-02T06:44:35.425Z,8.17
2018-11-02T06:47:10.325Z,8.23
2018-11-02T06:49:44.654Z,9.80
2018-11-02T06:52:19.481Z,7.60
2018-11-02T06:54:53.685Z,10.07
2018-11-02T06:57:28.251Z,13.50
2018-11-02T07:00:03.700Z,7.43
2018-11-02T07:02:38.263Z,9.63
2018-11-02T07:05:12.817Z,8.60
2018-11-02T07:07:47.552Z,8.33
2018-11-02T07:10:22.165Z,8.30
2018-11-02T07:12:56.885Z,8.27
2018-11-02T07:15:31.585Z,9.20
2018-11-02T07:18:06.285Z,8.93
2018-11-02T07:20:41.009Z,7.50
2018-11-02T07:23:16.332Z,7.17
2018-11-02T07:25:50.555Z,9.33
2018-11-02T07:28:25.271Z,7.33
2018-11-02T07:31:00.024Z,12.87
2018-11-02T07:33:34.744Z,12.43
2018-11-02T07:36:09.502Z,9.17
2018-11-02T07:38:44.294Z,9.50
2018-11-02T07:41:18.573Z,9.50
2018-11-02T07:43:53.092Z,13.10
2018-11-02T07:46:27.627Z,10.20
2018-11-02T07:49:02.103Z,11.07
2018-11-02T07:51:36.693Z,9.50
2018-11-02T07:54:11.604Z,9.70
2018-11-02T07:56:45.945Z,7.57
2018-11-02T07:59:20.409Z,10.10
2018-11-02T08:01:55.379Z,9.37
2018-11-02T08:04:29.501Z,11.03
2018-11-02T08:07:05.065Z,12.07
2018-11-02T08:09:39.841Z,7.87
2018-11-02T08:12:14.246Z,8.33
2018-11-02T08:14:49.294Z,8.60
2018-11-02T08:17:24.426Z,11.80
2018-11-02T08:19:58.903Z,9.63
2018-11-02T08:22:34.561Z,7.90
2018-11-02T08:25:10.102Z,12.93
2018-11-02T08:27:44.905Z,10.83
2018-11-02T08:30:19.734Z,13.33
2018-11-02T08:32:54.552Z,8.60
2018-11-02T08:35:29.383Z,11.60
2018-11-02T08:38:04.056Z,13.63
2018-11-02T08:40:38.639Z,10.27
2018-11-02T08:43:13.429Z,11.63
2018-11-02T08:45:48.042Z,11.90
2018-11-02T08:48:22.646Z,12.83
2018-11-02T08:50:58.147Z,12.90
2018-11-02T08:53:32.721Z,10.83
2018-11-02T08:56:07.667Z,9.90
2018-11-02T08:58:42.057Z,13.17
2018-11-02T09:01:16.560Z,15.60
2018-11-02T09:03:51.311Z,10.17
2018-11-02T09:06:25.977Z,10.10
2018-11-02T09:09:00.433Z,11.73
2018-11-02T09:11:34.719Z,10.07
2018-11-02T09:14:09.382Z,9.70
2018-11-02T09:16:44.662Z,8.97
2018-11-02T09:19:19.468Z,9.13
2018-11-02T09:21:54.384Z,8.27
2018-11-02T09:24:28.981Z,13.33
2018-11-02T09:27:03.375Z,15.47
2018-11-02T09:29:37.974Z,11.67
2018-11-02T09:32:12.405Z,12.40
2018-11-02T09:34:47.265Z,9.70
2018-11-02T09:37:21.614Z,14.60
2018-11-02T09:39:56.136Z,18.63
2018-11-02T09:42:31.043Z,9.57
2018-11-02T09:45:08.451Z,16.30
2018-11-02T09:47:44.128Z,10.87
2018-11-02T09:50:19.034Z,11.53
2018-11-02T09:52:53.548Z,10.47
2018-11-02T09:55:28.147Z,12.23
2018-11-02T09:58:02.638Z,10.63
2018-11-02T10:00:37.533Z,9.27
2018-11-02T10:03:13.104Z,9.17
2018-11-02T10:05:47.606Z,8.53
2018-11-02T10:08:22.170Z,9.50
2018-11-02T10:10:56.936Z,8.40
2018-11-02T10:13:31.316Z,12.23
2018-11-02T10:16:06.665Z,9.43
2018-11-02T10:18:41.753Z,18.00
2018-11-02T10:21:16.473Z,13.23
2018-11-02T10:23:51.132Z,13.50
2018-11-02T10:26:25.760Z,13.73
2018-11-02T10:29:00.298Z,18.63
2018-11-02T10:31:35.614Z,16.13
2018-11-02T10:34:10.423Z,14.50
2018-11-02T10:36:45.018Z,14.47
2018-11-02T10:39:19.542Z,13.20
2018-11-02T10:41:58.582Z,14.03
2018-11-02T10:44:38.021Z,12.80
2018-11-02T10:47:12.679Z,13.70
2018-11-02T10:49:47.298Z,14.27
2018-11-02T10:52:21.713Z,18.03
2018-11-02T10:54:56.350Z,14.20
2018-11-02T10:57:31.421Z,13.73
2018-11-02T11:00:16.748Z,17.67
2018-11-02T11:02:51.387Z,14.47
2018-11-02T11:05:26.320Z,19.67
2018-11-02T11:08:00.598Z,15.40
2018-11-02T11:10:35.125Z,16.73
2018-11-02T11:13:10.051Z,18.37
2018-11-02T11:15:44.318Z,13.17
2018-11-02T11:18:18.778Z,15.53
2018-11-02T11:20:53.334Z,15.27
2018-11-02T11:23:27.922Z,14.73
2018-11-02T11:26:02.665Z,20.53
2018-11-02T11:28:37.137Z,14.47
2018-11-02T11:31:12.019Z,16.93
2018-11-02T11:33:47.549Z,18.13
2018-11-02T11:36:21.973Z,15.20
2018-11-02T11:38:56.449Z,18.73
2018-11-02T11:41:31.238Z,19.03
2018-11-02T11:44:05.662Z,17.60
2018-11-02T11:46:40.250Z,13.77
2018-11-02T11:49:14.998Z,15.37
2018-11-02T11:51:49.440Z,19.00
2018-11-02T11:54:24.332Z,18.30
2018-11-02T11:56:58.750Z,18.63
2018-11-02T11:59:33.461Z,15.83
2018-11-02T12:02:08.051Z,18.90
2018-11-02T12:04:42.690Z,14.67
2018-11-02T12:07:17.087Z,17.20
2018-11-02T12:09:51.630Z,13.07
2018-11-02T12:12:26.838Z,13.40
2018-11-02T12:15:02.158Z,15.27
2018-11-02T12:17:37.101Z,15.00
2018-11-02T12:20:15.062Z,16.70
2018-11-02T12:22:52.198Z,17.40
2018-11-02T12:25:27.254Z,14.57
2018-11-02T12:28:01.529Z,20.40
2018-11-02T12:30:36.669Z,16.40
2018-11-02T12:33:11.615Z,21.43
2018-11-02T12:35:46.397Z,13.90
2018-11-02T12:38:20.882Z,17.13
2018-11-02T12:40:55.878Z,14.93
2018-11-02T12:43:30.967Z,17.87
2018-11-02T12:46:05.526Z,16.17
2018-11-02T12:48:40.459Z,17.97
2018-11-02T12:51:15.177Z,16.70
2018-11-02T12:53:49.467Z,16.23
2018-11-02T12:56:23.905Z,14.50
2018-11-02T12:58:58.685Z,12.40
2018-11-02T13:01:33.254Z,16.33
2018-11-02T13:04:07.666Z,16.00
2018-11-02T13:06:42.202Z,15.43
2018-11-02T13:09:16.915Z,16.17
2018-11-02T13:11:51.542Z,18.43
2018-11-02T13:14:26.314Z,14.87
2018-11-02T13:17:01.747Z,17.60
2018-11-02T13:19:36.634Z,16.90
2018-11-02T13:22:11.465Z,13.57
2018-11-02T13:24:46.136Z,14.93
2018-11-02T13:27:21.002Z,12.27
2018-11-02T13:29:55.524Z,16.60
2018-11-02T13:32:37.991Z,13.90
2018-11-02T13:35:16.551Z,10.53
2018-11-02T13:37:58.397Z,10.63
2018-11-02T13:40:32.981Z,12.90
2018-11-02T13:43:07.699Z,13.67
2018-11-02T13:45:42.170Z,15.73
2018-11-02T13:48:16.799Z,12.93
2018-11-02T13:50:52.229Z,10.33
2018-11-02T13:53:26.959Z,15.50
2018-11-02T13:56:01.381Z,12.17
2018-11-02T13:58:36.102Z,13.60
2018-11-02T14:01:10.800Z,11.50
2018-11-02T14:03:45.612Z,14.43
2018-11-02T14:06:20.033Z,11.77
2018-11-02T14:08:54.555Z,10.03
2018-11-02T14:11:29.432Z,13.80
2018-11-02T14:14:03.745Z,11.40
2018-11-02T14:16:38.312Z,13.20
2018-11-02T14:19:12.851Z,9.80
2018-11-02T14:21:47.583Z,12.33
2018-11-02T14:24:22.525Z,10.33
2018-11-02T14:26:56.752Z,11.13
2018-11-02T14:29:31.533Z,9.37
2018-11-02T14:32:06.214Z,10.80
2018-11-02T14:34:41.030Z,10.77
2018-11-02T14:37:15.716Z,13.30
2018-11-02T14:39:50.678Z,9.80
2018-11-02T14:42:25.034Z,9.17
2018-11-02T14:44:59.712Z,8.50
2018-11-02T14:47:35.225Z,10.60
2018-11-02T14:50:10.889Z,8.27
2018-11-02T14:52:45.736Z,8.03
2018-11-02T14:55:20.838Z,7.17
2018-11-02T14:57:56.836Z,10.67
2018-11-02T15:00:31.982Z,9.40
2018-11-02T15:03:06.470Z,9.20
2018-11-02T15:05:41.041Z,14.10
2018-11-02T15:08:16.088Z,11.90
2018-11-02T15:10:50.390Z,8.87
2018-11-02T15:13:24.774Z,9.43
2018-11-02T15:15:59.353Z,10.23
2018-11-02T15:18:34.139Z,8.07
2018-11-02T15:21:08.674Z,9.37
2018-11-02T15:23:43.217Z,12.77
2018-11-02T15:26:17.786Z,13.80
2018-11-02T15:28:53.125Z,9.83
2018-11-02T15:31:28.904Z,8.63
2018-11-02T15:34:03.550Z,12.27
2018-11-02T15:36:38.295Z,16.17
2018-11-02T15:39:12.734Z,8.70
2018-11-02T15:41:47.138Z,12.43
2018-11-02T15:44:22.482Z,9.23
2018-11-02T15:46:56.628Z,8.87
2018-11-02T15:49:31.213Z,10.97
2018-11-02T15:52:05.916Z,12.30
2018-11-02T15:54:40.531Z,14.57
2018-11-02T15:57:15.134Z,12.43
2018-11-02T15:59:50.785Z,13.37
2018-11-02T16:02:25.478Z,12.40
2018-11-02T16:05:00.006Z,15.13
2018-11-02T16:07:34.651Z,14.10
2018-11-02T16:10:11.184Z,12.50
2018-11-02T16:12:46.107Z,12.43
2018-11-02T16:15:21.121Z,11.17
2018-11-02T16:17:55.769Z,10.53
2018-11-02T16:20:30.346Z,10.47
2018-11-02T16:23:06.433Z,16.87
2018-11-02T16:25:41.322Z,12.27
2018-11-02T16:28:15.907Z,11.00
2018-11-02T16:30:50.539Z,11.23
2018-11-02T16:33:26.242Z,11.87
2018-11-02T16:36:00.500Z,12.30
2018-11-02T16:38:35.061Z,11.23
2018-11-02T16:41:09.995Z,13.03
2018-11-02T16:43:45.576Z,12.27
2018-11-02T16:46:19.730Z,11.70
2018-11-02T16:48:54.477Z,10.70
2018-11-02T16:51:29.228Z,15.63
2018-11-02T16:54:05.358Z,12.63
2018-11-02T16:56:39.897Z,14.93
2018-11-02T16:59:14.470Z,10.63
2018-11-02T17:01:48.806Z,11.63
2018-11-02T17:04:23.507Z,10.57
2018-11-02T17:06:59.430Z,11.13
2018-11-02T17:09:33.625Z,14.53
2018-11-02T17:12:08.061Z,13.17
2018-11-02T17:14:42.647Z,10.80
2018-11-02T17:17:17.126Z,15.97
2018-11-02T17:19:51.771Z,16.90
2018-11-02T17:22:26.215Z,12.60
2018-11-02T17:25:00.856Z,14.00
2018-11-02T17:27:35.596Z,16.87
2018-11-02T17:30:13.802Z,13.03
2018-11-02T17:32:48.470Z,18.57
2018-11-02T17:35:23.266Z,13.90
2018-11-02T17:38:02.083Z,12.70
2018-11-02T17:40:36.394Z,17.63
2018-11-02T17:43:14.823Z,17.80
2018-11-02T17:45:49.974Z,15.23
2018-11-02T17:48:25.226Z,16.57
2018-11-02T17:51:01.274Z,16.63
2018-11-02T17:53:36.238Z,14.37
2018-11-02T17:58:48.290Z,19.60
2018-11-02T18:01:23.841Z,17.30
2018-11-02T18:04:01.773Z,25.37
2018-11-02T18:06:37.038Z,19.77
2018-11-02T18:09:12.104Z,14.27
2018-11-02T18:11:46.591Z,23.33
2018-11-02T18:14:21.058Z,19.50
2018-11-02T18:16:55.665Z,20.00
2018-11-02T18:19:30.275Z,24.80
2018-11-02T18:22:05.302Z,18.07
2018-11-02T18:24:39.561Z,21.33
2018-11-02T18:27:14.290Z,17.63
2018-11-02T18:29:49.397Z,23.60
2018-11-02T18:32:24.011Z,19.70
2018-11-02T18:34:59.374Z,18.73
2018-11-02T18:37:34.260Z,19.23
2018-11-02T18:40:11.597Z,17.33
2018-11-02T18:42:46.015Z,24.27
2018-11-02T18:45:20.256Z,23.90
2018-11-02T18:47:54.795Z,27.13
2018-11-02T18:50:29.632Z,21.67
2018-11-02T18:53:04.157Z,27.77
2018-11-02T18:55:38.414Z,21.90
2018-11-02T18:58:13.030Z,25.13
2018-11-02T19:00:49.302Z,27.53
2018-11-02T19:03:24.074Z,30.03
2018-11-02T19:05:58.409Z,20.37
2018-11-02T19:08:33.810Z,22.80
2018-11-02T19:11:15.127Z,29.47
2018-11-02T19:13:52.218Z,19.40
2018-11-02T19:16:28.932Z,22.07
2018-11-02T19:19:04.825Z,25.50
2018-11-02T19:21:39.092Z,26.23
2018-11-02T19:24:13.751Z,24.23
2018-11-02T19:26:48.316Z,19.30
2018-11-02T19:29:24.886Z,19.13
2018-11-02T19:31:59.406Z,21.67
2018-11-02T19:34:34.311Z,16.30
2018-11-02T19:37:08.549Z,19.80
2018-11-02T19:39:43.034Z,19.80
2018-11-02T19:42:17.609Z,22.20
2018-11-02T19:44:52.170Z,23.07
2018-11-02T19:47:32.177Z,25.30
2018-11-02T19:52:47.949Z,18.33
2018-11-02T19:55:24.555Z,20.10
2018-11-02T19:58:02.593Z,18.90
2018-11-02T20:00:36.911Z,23.83
2018-11-02T20:03:17.605Z,17.97
2018-11-02T20:05:52.777Z,21.53
2018-11-02T20:08:27.258Z,19.40
2018-11-02T20:11:01.742Z,22.97
2018-11-02T20:13:36.772Z,17.33
2018-11-02T20:16:17.411Z,23.33
2018-11-02T20:18:52.827Z,22.07
2018-11-02T20:21:28.234Z,18.50
2018-11-02T20:24:03.466Z,18.53
2018-11-02T20:26:38.518Z,20.87
2018-11-02T20:29:12.935Z,21.17
2018-11-02T20:31:47.425Z,22.63
2018-11-02T20:34:23.411Z,21.77
2018-11-02T20:37:00.977Z,20.03
2018-11-02T20:39:38.847Z,22.90
2018-11-02T20:42:13.566Z,27.17
2018-11-02T20:44:47.898Z,21.33
2018-11-02T20:47:22.361Z,42.70
2018-11-02T20:49:57.089Z,65.57
2018-11-02T20:52:34.065Z,35.47
2018-11-02T20:55:11.655Z,30.37
2018-11-02T20:57:46.767Z,27.20
2018-11-02T21:00:24.077Z,27.37
2018-11-02T21:02:58.554Z,29.97
2018-11-02T21:05:33.236Z,27.63
2018-11-02T21:08:07.906Z,29.30
2018-11-02T21:10:42.400Z,27.87
2018-11-02T21:13:17.072Z,27.57
2018-11-02T21:15:53.985Z,28.80
2018-11-02T21:18:29.088Z,27.77
2018-11-02T21:21:05.135Z,27.37
2018-11-02T21:23:39.322Z,36.63
2018-11-02T21:26:13.965Z,32.87
2018-11-02T21:28:49.424Z,36.10
2018-11-02T21:31:24.117Z,29.27
2018-11-02T21:33:58.633Z,32.37
2018-11-02T21:36:34.141Z,37.70
2018-11-02T21:39:11.704Z,32.03
2018-11-02T21:44:23.874Z,31.40
2018-11-02T21:46:58.777Z,34.00
2018-11-02T21:49:33.264Z,26.13
2018-11-02T21:52:08.355Z,35.83
2018-11-02T21:54:43.825Z,25.50
2018-11-02T21:57:25.312Z,25.77
2018-11-02T22:00:00.278Z,28.37
2018-11-02T22:02:37.294Z,27.53
2018-11-02T22:05:12.509Z,29.90
2018-11-02T22:07:48.881Z,33.60
2018-11-02T22:10:23.778Z,27.70
2018-11-02T22:12:59.123Z,33.57
2018-11-02T22:15:34.532Z,25.10
2018-11-02T22:18:09.579Z,32.13
2018-11-02T22:20:44.545Z,33.53
2018-11-02T22:23:19.574Z,28.90
2018-11-02T22:25:54.025Z,33.50
2018-11-02T22:28:29.424Z,38.73
2018-11-02T22:31:04.104Z,34.00
2018-11-02T22:33:38.819Z,27.97
2018-11-02T22:36:15.226Z,30.07
2018-11-02T22:38:50.441Z,30.83
2018-11-02T22:41:25.981Z,27.63
2018-11-02T22:44:00.375Z,27.87
2018-11-02T22:46:43.124Z,27.77
2018-11-02T22:49:17.505Z,36.23
2018-11-02T22:51:52.495Z,26.30
2018-11-02T22:54:27.478Z,32.97
2018-11-02T22:57:02.036Z,25.77
2018-11-02T22:59:36.902Z,29.80
2018-11-02T23:02:11.278Z,24.30
2018-11-02T23:04:45.830Z,23.87
2018-11-02T23:07:20.363Z,29.00
2018-11-02T23:09:55.265Z,28.00
2018-11-02T23:12:30.391Z,21.23
2018-11-02T23:15:07.003Z,23.53
2018-11-02T23:17:41.946Z,27.90
2018-11-02T23:20:16.261Z,23.57
2018-11-02T23:22:50.722Z,24.50
2018-11-02T23:25:25.406Z,24.47
2018-11-02T23:28:00.233Z,30.40
2018-11-02T23:30:34.591Z,24.80
2018-11-02T23:33:10.429Z,28.60
2018-11-02T23:35:44.780Z,20.33
2018-11-02T23:38:19.515Z,21.80
2018-11-02T23:40:53.786Z,22.00
2018-11-02T23:43:29.442Z,21.30
2018-11-02T23:46:04.112Z,21.63
2018-11-02T23:48:38.853Z,22.70
2018-11-02T23:51:13.546Z,17.63
2018-11-02T23:53:47.900Z,20.07
2018-11-02T23:56:22.301Z,18.80
2018-11-02T23:58:56.898Z,24.63
